Portada
METAR-TAF:

METAR-TAF

Aeropuertos :

Aeropuerto de Gran Canaria

Gran Canaria, España

latitud: 27-56N, longitud: 015-23W, altitud: 23 m

Observación

El informe se hizo hace 15 horas y 15 minutos, a las 05:00 UTC
Viento 9 kt del norte-noreste
Temperatura 21°C
Humedad 83%
Presión 1014 hPa
Visibilidad 10 km o más
Escasas nubes a una altura de 2000 ft

METAR: GCLP 210500Z 02009KT 9999 FEW020 21/18 Q1014 NOSIG

Hora: 21:15 (20:15 UTC)

Pronóstico

El informe se hizo hace 18 horas y 15 minutos, a las 02:00 UTC
Pronóstico válido del 21 a las 03 UTC al 22 a las 03 UTC
Viento 15 kt del norte
Visibilidad 10 km o más
Escasas nubes a una altura de 2000 ft

TAF: GCLP 210200Z 2103/2203 36015KT 9999 FEW020 TX27/2114Z TN22/2106Z

Observaciones y pronósticos meteorológicos de más de 4000 aeropuertos (mensajes METAR y TAF).

Los puntos amarillos y rojos representan las estaciones disponibles.

Ponga el ratón en el punto deseado para ver el nombre de la estación.

Haga clic para ver las observaciones y los pronósticos meteorológicos.

Para cambiar el mapa : haga clic en los botones verdes con una cruz de color negro para hacer un zoom, en el botón verde con un guión para alejar o en las flechas verdes para mapas adyacentes.


METAR-TAF: